KB3EOF Weather Reports


Display with metric or nautical units.
time (UTC)temp
F
wind
direction
speed
MPH
gust
MPH
rain 1hr
in
rain 24hr
in
rain mn
in
humidity
%
barometer
mb
20200602105341 51 360 0.0 0.0 0.00 0.00 0.00 93 1022.5
20200602102340 50 360 0.0 0.0 0.00 0.00 0.00 93 1022.4
20200602095339 50 360 0.0 0.0 0.00 0.00 0.00 92 1022.7
20200602092338 49 360 0.0 0.0 0.00 0.00 0.00 93 1022.7
20200602085337 49 360 0.0 0.0 0.00 0.00 0.00 94 1022.7
20200602082336 49 360 0.0 0.0 0.00 0.00 0.00 92 1022.9
20200602075515 49 360 0.0 0.0 0.00 0.00 0.00 89 1022.8
20200602075335 49 360 0.0 0.0 0.00 0.00 0.00 89 1022.8
20200602072334 47 360 0.0 0.0 0.00 0.00 0.00 96 1023.2
20200602065333 47 360 0.0 0.0 0.00 0.00 0.00 94 1023.2
20200602062332 48 360 0.0 0.0 0.00 0.00 0.00 93 1023.5
20200602055331 48 360 0.0 0.0 0.00 0.00 0.00 92 1023.8
20200602052330 49 311 1.0 1.0 0.00 0.00 0.00 93 1024.1
20200602045401 50 273 1.0 1.0 0.00 0.00 0.00 92 1024.1
20200602045329 50 273 1.0 1.0 0.00 0.00 0.00 92 1024.1
20200602042402 51 360 0.0 0.0 0.00 0.00 0.00 90 1024.1
20200602042328 51 360 0.0 0.0 0.00 0.00 0.00 90 1024.1
20200602035327 51 305 2.0 2.0 0.00 0.00 0.00 92 1024.3
20200602032326 52 302 0.0 0.0 0.00 0.00 0.00 90 1024.5
20200602025325 54 360 0.0 0.0 0.00 0.00 0.00 77 1024.5
20200602022325 55 270 0.0 0.0 0.00 0.00 0.00 80 1024.1
20200602015323 58 168 0.0 0.0 0.00 0.00 0.00 68 1023.6
20200602012322 60 360 0.0 0.0 0.00 0.00 0.00 61 1023.3
20200602005321 64 360 0.0 0.0 0.00 0.00 0.00 46 1022.9
20200602002320 68 360 0.0 0.0 0.00 0.00 0.00 40 1022.6
20200601235319 71 292 0.0 0.0 0.00 0.00 0.00 34 1022.4
20200601232318 75 266 1.0 1.0 0.00 0.00 0.00 32 1022.0
20200601225317 81 360 0.0 0.0 0.00 0.00 0.00 26 1021.7
20200601222316 78 222 3.0 3.0 0.00 0.00 0.00 29 1022.0
20200601215315 78 294 3.0 3.0 0.00 0.00 0.00 28 1022.6
20200601212314 76 23 4.0 4.0 0.00 0.00 0.00 32 1022.8
20200601205313 75 241 4.0 4.0 0.00 0.00 0.00 33 1023.2
20200601202312 75 249 3.0 4.0 0.00 0.00 0.00 36 1023.4
20200601195311 74 254 4.0 4.0 0.00 0.00 0.00 36 1024.2
20200601192310 74 255 5.0 5.0 0.00 0.00 0.00 36 1024.5
20200601185412 73 304 4.0 5.0 0.00 0.00 0.00 35 1024.8
20200601185309 73 304 4.0 5.0 0.00 0.00 0.00 35 1024.8
20200601182308 71 252 6.0 6.0 0.00 0.00 0.00 38 1025.4
20200601175307 73 297 3.0 5.0 0.00 0.00 0.00 37 1025.8
20200601172306 71 274 5.0 5.0 0.00 0.00 0.00 39 1026.2
20200601165305 70 295 4.0 4.0 0.00 0.00 0.00 39 1026.5
20200601162424 69 1 3.0 3.0 0.00 0.00 0.00 39 1027.3
20200601162304 69 1 3.0 3.0 0.00 0.00 0.00 39 1027.3
20200601155303 68 310 3.0 3.0 0.00 0.00 0.00 38 1027.7
20200601152302 67 242 3.0 3.0 0.00 0.00 0.00 42 1028.1
20200601145301 65 169 3.0 3.0 0.00 0.00 0.00 43 1028.2
20200601142512 64 313 2.0 3.0 0.00 0.00 0.00 42 1028.7
20200601142300 64 313 2.0 3.0 0.00 0.00 0.00 42 1028.7
20200601135400 63 234 3.0 3.0 0.00 0.00 0.00 45 1028.9
20200601135259 63 234 3.0 3.0 0.00 0.00 0.00 45 1028.9
20200601132409 68 269 1.0 1.0 0.00 0.00 0.00 40 1029.0
20200601132258 68 269 1.0 1.0 0.00 0.00 0.00 40 1029.0
20200601125257 60 217 1.0 1.0 0.00 0.00 0.00 55 1029.5
20200601122414 54 295 2.0 2.0 0.00 0.00 0.00 64 1029.7
20200601122256 54 295 2.0 2.0 0.00 0.00 0.00 64 1029.7
20200601115348 47 297 1.0 1.0 0.00 0.00 0.00 94 1029.9
20200601115255 47 297 1.0 1.0 0.00 0.00 0.00 94 1029.9
20200601112348 44 360 0.0 0.0 0.00 0.00 0.00 97 1029.5
20200601112254 44 360 0.0 0.0 0.00 0.00 0.00 97 1029.5